createdAt,value
2018-05-14T00:01:55.754Z,17.85
2018-05-14T00:04:23.271Z,16.87
2018-05-14T00:06:51.550Z,18.35
2018-05-14T00:09:19.813Z,18.23
2018-05-14T00:11:47.350Z,18.60
2018-05-14T00:14:14.889Z,19.60
2018-05-14T00:16:42.393Z,19.17
2018-05-14T00:19:10.744Z,20.35
2018-05-14T00:21:38.245Z,19.87
2018-05-14T00:24:06.563Z,19.30
2018-05-14T00:26:34.061Z,19.27
2018-05-14T00:29:01.569Z,20.10
2018-05-14T00:31:29.069Z,18.40
2018-05-14T00:33:56.603Z,19.77
2018-05-14T00:36:24.101Z,19.83
2018-05-14T00:38:51.620Z,20.10
2018-05-14T00:41:19.122Z,20.58
2018-05-14T00:43:47.417Z,18.85
2018-05-14T00:46:15.685Z,20.48
2018-05-14T00:48:43.964Z,20.02
2018-05-14T00:51:12.238Z,18.20
2018-05-14T00:53:40.506Z,20.48
2018-05-14T00:56:08.013Z,19.12
2018-05-14T00:58:39.511Z,19.75
2018-05-14T01:01:07.028Z,17.95
2018-05-14T01:03:34.538Z,18.00
2018-05-14T01:06:02.825Z,19.08
2018-05-14T01:08:31.107Z,17.98
2018-05-14T01:10:59.378Z,19.90
2018-05-14T01:13:27.648Z,20.40
2018-05-14T01:15:55.925Z,20.70
2018-05-14T01:18:24.198Z,19.90
2018-05-14T01:20:51.713Z,18.77
2018-05-14T01:23:19.215Z,19.33
2018-05-14T01:25:47.497Z,20.60
2018-05-14T01:28:15.872Z,19.83
2018-05-14T01:30:44.044Z,18.25
2018-05-14T01:33:11.582Z,18.27
2018-05-14T01:35:39.840Z,18.98
2018-05-14T01:38:07.365Z,17.30
2018-05-14T01:40:34.903Z,17.10
2018-05-14T01:43:03.182Z,15.50
2018-05-14T01:45:31.461Z,14.98
2018-05-14T01:47:59.738Z,15.30
2018-05-14T01:50:28.013Z,14.98
2018-05-14T01:52:56.313Z,14.40
2018-05-14T01:55:23.816Z,14.82
2018-05-14T01:57:51.320Z,13.15
2018-05-14T02:00:19.612Z,13.23
2018-05-14T02:02:47.118Z,10.80
2018-05-14T02:05:14.621Z,9.32
2018-05-14T02:07:42.145Z,8.48
2018-05-14T02:10:09.662Z,6.55
2018-05-14T02:25:42.211Z,4.75
2018-05-14T02:28:09.709Z,6.68
2018-05-14T02:30:37.229Z,5.00
2018-05-14T02:33:04.730Z,5.32
2018-05-14T02:35:32.221Z,3.83
2018-05-14T02:38:00.525Z,4.95
2018-05-14T02:40:28.050Z,5.07
2018-05-14T02:42:55.566Z,4.25
2018-05-14T02:45:23.081Z,6.22
2018-05-14T02:47:51.355Z,5.78
2018-05-14T02:50:19.620Z,6.37
2018-05-14T02:52:48.246Z,5.15
2018-05-14T02:55:15.750Z,4.50
2018-05-14T02:57:43.372Z,4.62
2018-05-14T03:00:10.927Z,5.43
2018-05-14T03:02:38.446Z,4.82
2018-05-14T03:05:05.953Z,4.97
2018-05-14T03:07:33.448Z,6.18
2018-05-14T03:10:00.953Z,7.53
2018-05-14T03:12:28.444Z,4.85
2018-05-14T03:14:55.947Z,6.78
2018-05-14T03:17:24.201Z,7.87
2018-05-14T03:19:51.709Z,5.15
2018-05-14T03:22:19.341Z,6.20
2018-05-14T03:24:47.622Z,5.20
2018-05-14T03:27:15.901Z,6.87
2018-05-14T03:29:44.178Z,6.80
2018-05-14T03:32:12.442Z,6.20
2018-05-14T03:34:39.961Z,8.15
2018-05-14T03:37:08.382Z,5.30
2018-05-14T03:39:36.497Z,6.70
2018-05-14T03:42:04.022Z,5.62
2018-05-14T03:44:32.331Z,5.70
2018-05-14T03:47:00.229Z,5.03
2018-05-14T03:49:27.727Z,8.00
2018-05-14T03:51:56.069Z,5.85
2018-05-14T03:54:23.561Z,7.70
2018-05-14T03:56:51.833Z,5.90
2018-05-14T03:59:31.118Z,8.95
2018-05-14T04:02:20.962Z,5.60
2018-05-14T04:05:00.440Z,6.62
2018-05-14T04:07:27.965Z,7.25
2018-05-14T04:09:56.229Z,5.68
2018-05-14T04:12:24.049Z,6.20
2018-05-14T04:14:51.558Z,7.00
2018-05-14T04:17:19.973Z,7.03
2018-05-14T04:19:47.573Z,7.07
2018-05-14T04:22:15.083Z,6.50
2018-05-14T04:24:42.757Z,5.97
2018-05-14T04:27:10.269Z,7.87
2018-05-14T04:29:37.803Z,6.18
2018-05-14T04:32:05.293Z,6.68
2018-05-14T04:34:32.795Z,6.05
2018-05-14T04:37:00.369Z,5.60
2018-05-14T04:39:28.049Z,8.77
2018-05-14T04:41:55.548Z,8.38
2018-05-14T04:44:23.830Z,6.57
2018-05-14T04:46:51.339Z,5.18
2018-05-14T04:49:18.823Z,5.65
2018-05-14T04:51:46.361Z,5.97
2018-05-14T04:54:13.897Z,5.75
2018-05-14T04:56:41.477Z,9.98
2018-05-14T04:59:09.032Z,6.20
2018-05-14T05:01:36.625Z,6.87
2018-05-14T05:04:04.192Z,5.62
2018-05-14T05:06:32.459Z,7.12
2018-05-14T05:08:59.964Z,7.90
2018-05-14T05:11:27.586Z,5.87
2018-05-14T05:13:55.006Z,9.40
2018-05-14T05:16:22.516Z,5.43
2018-05-14T05:18:50.789Z,7.53
2018-05-14T05:21:19.056Z,6.75
2018-05-14T05:23:47.329Z,7.20
2018-05-14T05:26:14.838Z,6.60
2018-05-14T05:28:42.349Z,7.60
2018-05-14T05:31:10.961Z,7.53
2018-05-14T05:33:38.474Z,9.00
2018-05-14T05:36:05.958Z,9.13
2018-05-14T05:38:34.297Z,7.28
2018-05-14T05:41:02.050Z,8.52
2018-05-14T05:43:29.602Z,7.97
2018-05-14T05:45:57.150Z,8.55
2018-05-14T05:48:25.857Z,5.82
2018-05-14T05:50:53.343Z,9.20
2018-05-14T05:53:20.904Z,7.10
2018-05-14T05:55:48.470Z,10.23
2018-05-14T05:58:16.055Z,9.43
2018-05-14T06:00:44.329Z,6.97
2018-05-14T06:03:12.588Z,7.82
2018-05-14T06:05:40.108Z,8.18
2018-05-14T06:08:07.605Z,6.87
2018-05-14T06:10:35.147Z,7.78
2018-05-14T06:13:03.090Z,8.88
2018-05-14T06:15:30.812Z,6.35
2018-05-14T06:17:58.277Z,6.87
2018-05-14T06:20:26.596Z,6.82
2018-05-14T06:22:54.093Z,6.43
2018-05-14T06:25:21.674Z,7.05
2018-05-14T06:27:50.015Z,6.90
2018-05-14T06:30:18.212Z,6.05
2018-05-14T06:32:45.701Z,8.98
2018-05-14T06:35:13.190Z,7.30
2018-05-14T06:37:40.693Z,9.27
2018-05-14T06:40:09.007Z,9.85
2018-05-14T06:42:36.743Z,7.47
2018-05-14T06:45:05.010Z,7.70
2018-05-14T06:47:33.288Z,7.90
2018-05-14T06:50:01.567Z,9.00
2018-05-14T06:52:29.955Z,8.68
2018-05-14T06:54:58.215Z,6.50
2018-05-14T06:57:25.716Z,5.85
2018-05-14T06:59:53.237Z,8.07
2018-05-14T07:02:21.502Z,7.97
2018-05-14T07:04:49.009Z,14.63
2018-05-14T07:07:16.533Z,7.87
2018-05-14T07:09:44.813Z,9.10
2018-05-14T07:12:13.077Z,8.65
2018-05-14T07:14:40.590Z,6.07
2018-05-14T07:17:08.097Z,8.73
2018-05-14T07:19:35.719Z,10.23
2018-05-14T07:22:03.197Z,6.93
2018-05-14T07:24:30.758Z,5.70
2018-05-14T07:26:58.264Z,9.55
2018-05-14T07:29:25.798Z,9.82
2018-05-14T07:31:54.085Z,6.00
2018-05-14T07:34:22.359Z,7.68
2018-05-14T07:36:50.633Z,6.28
2018-05-14T07:39:18.901Z,6.43
2018-05-14T07:41:46.414Z,7.37
2018-05-14T07:44:13.956Z,6.62
2018-05-14T07:46:41.459Z,6.20
2018-05-14T07:49:08.977Z,7.45
2018-05-14T07:51:36.528Z,6.12
2018-05-14T07:54:04.065Z,11.75
2018-05-14T07:56:32.349Z,9.38
2018-05-14T07:59:00.966Z,6.68
2018-05-14T08:01:28.481Z,8.85
2018-05-14T08:03:56.045Z,6.80
2018-05-14T08:06:24.355Z,10.80
2018-05-14T08:08:51.845Z,9.15
2018-05-14T08:11:19.382Z,8.98
2018-05-14T08:13:46.940Z,6.68
2018-05-14T08:16:14.461Z,7.37
2018-05-14T08:18:42.724Z,6.87
2018-05-14T08:21:10.236Z,8.13
2018-05-14T08:23:37.795Z,6.43
2018-05-14T08:26:05.327Z,5.53
2018-05-14T08:28:34.424Z,4.60
2018-05-14T08:31:02.721Z,5.35
2018-05-14T08:33:30.224Z,5.65
2018-05-14T08:35:57.722Z,4.75
2018-05-14T08:38:26.005Z,7.43
2018-05-14T08:40:53.512Z,5.95
2018-05-14T08:43:21.026Z,9.57
2018-05-14T08:45:48.562Z,7.28
2018-05-14T08:48:16.857Z,5.28
2018-05-14T08:50:44.373Z,7.15
2018-05-14T08:53:11.882Z,6.70
2018-05-14T08:55:39.381Z,6.00
2018-05-14T08:58:06.894Z,6.28
2018-05-14T09:00:34.941Z,5.57
2018-05-14T09:03:03.624Z,6.07
2018-05-14T09:05:35.534Z,7.03
2018-05-14T09:08:07.320Z,5.53
2018-05-14T09:10:34.841Z,8.48
2018-05-14T09:13:02.371Z,6.00
2018-05-14T09:15:30.662Z,5.12
2018-05-14T09:17:58.938Z,7.62
2018-05-14T09:20:27.215Z,5.85
2018-05-14T09:22:54.745Z,5.28
2018-05-14T09:25:22.275Z,6.37
2018-05-14T09:27:49.766Z,6.28
2018-05-14T09:30:17.276Z,3.80
2018-05-14T09:34:30.738Z,3.90
2018-05-14T09:36:58.486Z,5.93
2018-05-14T09:39:26.083Z,8.32
2018-05-14T09:41:53.922Z,4.28
2018-05-14T09:44:21.438Z,4.93
2018-05-14T09:46:49.717Z,3.97
2018-05-14T09:49:18.278Z,6.82
2018-05-14T09:51:45.810Z,5.53
2018-05-14T09:54:13.301Z,4.93
2018-05-14T09:56:40.823Z,6.65
2018-05-14T09:59:12.229Z,5.18
2018-05-14T10:01:40.641Z,4.55
2018-05-14T10:04:08.190Z,7.40
2018-05-14T10:06:35.787Z,4.07
2018-05-14T10:09:03.313Z,5.12
2018-05-14T10:11:30.949Z,5.03
2018-05-14T10:13:58.394Z,3.50
2018-05-14T10:16:26.621Z,6.07
2018-05-14T10:18:54.241Z,5.43
2018-05-14T10:21:22.533Z,3.40
2018-05-14T10:23:50.789Z,4.28
2018-05-14T10:26:19.596Z,6.10
2018-05-14T10:28:47.163Z,6.65
2018-05-14T10:31:15.377Z,5.07
2018-05-14T10:33:43.568Z,4.07
2018-05-14T10:36:11.070Z,3.45
2018-05-14T10:38:38.591Z,4.15
2018-05-14T10:41:06.105Z,4.72
2018-05-14T10:43:33.679Z,6.12
2018-05-14T10:46:01.395Z,10.50
2018-05-14T10:48:29.657Z,3.08
2018-05-14T10:50:57.183Z,5.53
2018-05-14T10:53:24.713Z,7.55
2018-05-14T10:55:52.249Z,7.72
2018-05-14T10:58:20.515Z,11.98
2018-05-14T11:00:48.044Z,11.38
2018-05-14T11:03:15.713Z,10.15
2018-05-14T11:05:43.222Z,7.45
2018-05-14T11:08:10.738Z,10.02
2018-05-14T11:10:38.345Z,6.12
2018-05-14T11:13:05.799Z,4.85
2018-05-14T11:15:33.348Z,7.80
2018-05-14T11:18:01.638Z,4.80
2018-05-14T11:20:29.154Z,4.95
2018-05-14T11:22:56.696Z,6.45
2018-05-14T11:25:24.197Z,3.80
2018-05-14T11:27:52.501Z,7.10
2018-05-14T11:30:20.001Z,5.20
2018-05-14T11:32:47.534Z,6.85
2018-05-14T11:35:15.029Z,6.55
2018-05-14T11:37:42.544Z,7.53
2018-05-14T11:40:10.181Z,3.55
2018-05-14T11:42:39.233Z,5.10
2018-05-14T11:45:06.726Z,19.27
2018-05-14T11:47:34.998Z,8.93
2018-05-14T11:50:03.409Z,4.72
2018-05-14T11:52:31.022Z,4.50
2018-05-14T11:54:58.542Z,5.20
2018-05-14T11:57:26.040Z,5.32
2018-05-14T11:59:53.562Z,4.60
2018-05-14T12:02:21.061Z,7.53
2018-05-14T12:04:48.603Z,5.05
2018-05-14T12:07:16.102Z,5.53
2018-05-14T12:09:44.395Z,7.25
2018-05-14T12:12:11.967Z,5.07
2018-05-14T12:14:39.393Z,7.15
2018-05-14T12:17:07.737Z,8.52
2018-05-14T12:19:35.255Z,7.12
2018-05-14T12:22:02.762Z,6.40
2018-05-14T12:24:30.287Z,5.30
2018-05-14T12:26:57.785Z,6.50
2018-05-14T12:29:25.304Z,7.05
2018-05-14T12:31:52.813Z,7.78
2018-05-14T12:34:20.328Z,6.62
2018-05-14T12:36:47.857Z,5.75
2018-05-14T12:39:15.358Z,3.90
2018-05-14T12:41:42.883Z,6.97
2018-05-14T12:44:10.384Z,6.70
2018-05-14T12:46:37.901Z,4.22
2018-05-14T12:49:05.442Z,7.25
2018-05-14T12:51:33.722Z,7.07
2018-05-14T12:54:02.008Z,5.00
2018-05-14T12:56:29.521Z,6.15
2018-05-14T12:58:57.039Z,8.18
2018-05-14T13:01:24.566Z,9.48
2018-05-14T13:03:52.829Z,7.55
2018-05-14T13:06:20.857Z,8.57
2018-05-14T13:08:48.365Z,5.03
2018-05-14T13:11:15.918Z,8.73
2018-05-14T13:13:43.442Z,4.90
2018-05-14T13:16:10.954Z,10.75
2018-05-14T13:18:39.247Z,5.30
2018-05-14T13:21:07.505Z,6.00
2018-05-14T13:23:35.786Z,8.60
2018-05-14T13:26:04.054Z,4.82
2018-05-14T13:28:32.333Z,9.00
2018-05-14T13:31:01.541Z,6.90
2018-05-14T13:33:29.805Z,9.07
2018-05-14T13:35:58.093Z,6.70
2018-05-14T13:38:26.385Z,5.35
2018-05-14T13:40:53.920Z,3.97
2018-05-14T13:43:22.300Z,5.82
2018-05-14T13:45:50.585Z,6.87
2018-05-14T13:48:18.860Z,4.90
2018-05-14T13:50:47.905Z,6.55
2018-05-14T13:53:15.402Z,6.03
2018-05-14T13:55:42.973Z,5.22
2018-05-14T13:58:11.242Z,7.07
2018-05-14T14:00:39.570Z,6.10
2018-05-14T14:03:07.087Z,6.53
2018-05-14T14:05:35.495Z,6.57
2018-05-14T14:08:03.149Z,8.65
2018-05-14T14:10:30.761Z,7.50
2018-05-14T14:13:01.886Z,3.92
2018-05-14T14:15:29.452Z,8.50
2018-05-14T14:17:56.977Z,5.62
2018-05-14T14:20:24.509Z,6.15
2018-05-14T14:22:52.798Z,4.72
2018-05-14T14:25:21.130Z,4.87
2018-05-14T14:27:49.476Z,9.65
2018-05-14T14:30:16.987Z,6.55
2018-05-14T14:32:44.625Z,6.93
2018-05-14T14:35:12.207Z,7.95
2018-05-14T14:37:39.703Z,4.40
2018-05-14T14:40:07.255Z,7.22
2018-05-14T14:42:34.778Z,11.60
2018-05-14T14:45:02.291Z,6.95
2018-05-14T14:47:29.819Z,6.18
2018-05-14T14:49:58.171Z,6.00
2018-05-14T14:52:26.001Z,6.80
2018-05-14T14:54:53.516Z,4.85
2018-05-14T14:57:21.018Z,7.43
2018-05-14T14:59:48.549Z,5.05
2018-05-14T15:02:16.820Z,4.37
2018-05-14T15:04:45.103Z,8.18
2018-05-14T15:07:12.624Z,4.40
2018-05-14T15:09:40.121Z,6.80
2018-05-14T15:12:08.463Z,5.68
2018-05-14T15:14:36.714Z,5.40
2018-05-14T15:17:05.162Z,6.57
2018-05-14T15:19:33.451Z,6.25
2018-05-14T15:22:00.987Z,9.05
2018-05-14T15:24:30.153Z,6.37
2018-05-14T15:36:45.221Z,8.25
2018-05-14T16:08:37.149Z,5.10
2018-05-14T16:11:05.441Z,3.70
2018-05-14T16:13:34.054Z,8.13
2018-05-14T16:16:01.581Z,7.53
2018-05-14T16:18:29.857Z,3.67
2018-05-14T16:20:57.387Z,10.75
2018-05-14T16:23:24.900Z,5.62
2018-05-14T16:25:52.406Z,5.28
2018-05-14T16:28:19.921Z,6.53
2018-05-14T16:30:47.449Z,6.75
2018-05-14T16:33:15.746Z,7.25
2018-05-14T16:35:43.246Z,12.18
2018-05-14T16:38:11.564Z,7.50
2018-05-14T16:40:39.854Z,5.32
2018-05-14T16:43:07.370Z,5.72
2018-05-14T16:45:34.944Z,12.25
2018-05-14T16:48:02.513Z,4.55
2018-05-14T16:50:30.780Z,4.78
2018-05-14T16:52:58.288Z,5.00
2018-05-14T16:55:25.832Z,4.78
2018-05-14T16:57:53.384Z,4.32
2018-05-14T17:00:22.169Z,4.53
2018-05-14T17:02:50.446Z,5.47
2018-05-14T17:05:18.746Z,8.10
2018-05-14T17:07:46.249Z,7.28
2018-05-14T17:10:14.226Z,5.70
2018-05-14T17:12:41.726Z,4.90
2018-05-14T17:15:09.257Z,4.40
2018-05-14T17:17:37.524Z,5.45
2018-05-14T17:20:05.084Z,4.00
2018-05-14T17:22:32.618Z,5.95
2018-05-14T17:25:00.457Z,15.85
2018-05-14T17:27:27.962Z,6.32
2018-05-14T17:29:55.493Z,6.18
2018-05-14T17:32:23.050Z,6.45
2018-05-14T17:34:50.613Z,9.13
2018-05-14T17:37:18.147Z,3.80
2018-05-14T17:39:45.649Z,6.87
2018-05-14T17:42:17.150Z,3.37
2018-05-14T17:44:44.653Z,7.68
2018-05-14T17:47:12.195Z,7.62
2018-05-14T17:49:39.719Z,6.07
2018-05-14T17:52:08.064Z,5.72
2018-05-14T17:54:36.317Z,9.30
2018-05-14T17:57:03.856Z,8.05
2018-05-14T17:59:31.963Z,7.78
2018-05-14T18:01:59.464Z,5.47
2018-05-14T18:04:27.741Z,8.35
2018-05-14T18:06:56.047Z,12.68
2018-05-14T18:09:24.072Z,3.78
2018-05-14T18:11:51.587Z,31.58
2018-05-14T18:14:19.122Z,8.00
2018-05-14T18:16:46.629Z,3.30
2018-05-14T18:19:14.133Z,6.62
2018-05-14T18:21:44.460Z,4.85
2018-05-14T18:24:11.961Z,4.87
2018-05-14T18:26:45.223Z,5.20
2018-05-14T18:29:12.759Z,5.47
2018-05-14T18:31:46.670Z,4.15
2018-05-14T18:34:16.738Z,4.25
2018-05-14T18:36:44.274Z,4.62
2018-05-14T18:39:11.818Z,6.43
2018-05-14T18:41:39.296Z,6.35
2018-05-14T18:44:12.395Z,5.78
2018-05-14T18:46:39.962Z,7.70
2018-05-14T18:49:07.514Z,4.60
2018-05-14T18:51:35.056Z,6.55
2018-05-14T18:54:02.560Z,5.72
2018-05-14T18:56:30.078Z,6.32
2018-05-14T18:58:57.598Z,7.82
2018-05-14T19:01:25.144Z,8.63
2018-05-14T19:03:52.661Z,3.83
2018-05-14T19:06:20.198Z,3.30
2018-05-14T19:08:47.705Z,4.50
2018-05-14T19:11:21.842Z,4.18
2018-05-14T19:13:49.349Z,6.57
2018-05-14T19:29:22.648Z,7.75
2018-05-14T19:31:50.215Z,3.42
2018-05-14T19:34:23.443Z,4.55
2018-05-14T19:36:50.968Z,8.15
2018-05-14T19:39:24.358Z,4.97
2018-05-14T19:41:51.870Z,5.50
2018-05-14T19:44:20.157Z,6.35
2018-05-14T19:46:49.412Z,9.20
2018-05-14T19:49:16.930Z,4.70
2018-05-14T19:51:45.032Z,3.83
2018-05-14T19:54:12.559Z,5.05
2018-05-14T19:56:40.638Z,4.15
2018-05-14T19:59:08.167Z,5.95
2018-05-14T20:01:37.026Z,4.80
2018-05-14T20:04:04.551Z,4.25
2018-05-14T20:06:32.061Z,4.53
2018-05-14T20:09:00.179Z,9.07
2018-05-14T20:11:27.729Z,6.00
2018-05-14T20:13:55.258Z,5.55
2018-05-14T20:16:22.786Z,6.25
2018-05-14T20:18:50.356Z,5.93
2018-05-14T20:21:17.871Z,6.07
2018-05-14T20:23:45.409Z,6.65
2018-05-14T20:26:13.690Z,6.95
2018-05-14T20:28:41.988Z,3.62
2018-05-14T20:31:09.521Z,3.92
2018-05-14T20:33:37.883Z,7.43
2018-05-14T20:36:05.504Z,11.27
2018-05-14T20:38:33.051Z,6.80
2018-05-14T20:41:00.602Z,4.37
2018-05-14T20:43:28.187Z,6.97
2018-05-14T20:45:55.814Z,7.15
2018-05-14T20:48:24.091Z,5.80
2018-05-14T20:50:52.388Z,3.97
2018-05-14T20:53:19.908Z,9.07
2018-05-14T20:55:48.192Z,9.25
2018-05-14T20:58:16.514Z,3.85
2018-05-14T21:00:44.032Z,5.60
2018-05-14T21:03:12.334Z,6.45
2018-05-14T21:05:39.896Z,9.48
2018-05-14T21:08:07.416Z,6.40
2018-05-14T21:10:34.924Z,4.50
2018-05-14T21:13:02.434Z,8.50
2018-05-14T21:15:30.100Z,8.05
2018-05-14T21:17:58.391Z,6.32
2018-05-14T21:20:26.679Z,6.50
2018-05-14T21:22:54.179Z,6.28
2018-05-14T21:25:21.701Z,8.00
2018-05-14T21:27:49.209Z,7.35
2018-05-14T21:30:17.505Z,8.77
2018-05-14T21:32:45.010Z,4.12
2018-05-14T21:35:12.530Z,6.47
2018-05-14T21:37:40.821Z,4.97
2018-05-14T21:40:09.900Z,5.10
2018-05-14T21:42:38.170Z,3.90
2018-05-14T21:45:05.662Z,7.07
2018-05-14T21:47:33.331Z,5.78
2018-05-14T21:50:00.844Z,4.10
2018-05-14T21:52:28.373Z,5.93
2018-05-14T21:54:55.883Z,4.15
2018-05-14T21:57:24.162Z,8.45
2018-05-14T21:59:52.416Z,6.35
2018-05-14T22:02:20.017Z,4.65
2018-05-14T22:04:47.534Z,5.80
2018-05-14T22:07:15.052Z,4.22
2018-05-14T22:09:42.560Z,9.52
2018-05-14T22:12:10.179Z,5.72
2018-05-14T22:14:37.753Z,9.68
2018-05-14T22:17:05.430Z,5.28
2018-05-14T22:19:33.043Z,7.18
2018-05-14T22:22:00.673Z,3.87
2018-05-14T22:24:28.971Z,5.97
2018-05-14T22:26:56.474Z,8.20
2018-05-14T22:29:23.993Z,3.53
2018-05-14T22:31:51.497Z,7.45
2018-05-14T22:34:19.011Z,7.30
2018-05-14T22:36:46.833Z,4.30
2018-05-14T22:39:14.348Z,5.55
2018-05-14T22:41:41.844Z,7.43
2018-05-14T22:44:09.368Z,4.72
2018-05-14T22:46:36.877Z,6.80
2018-05-14T22:49:04.386Z,3.80
2018-05-14T22:51:31.894Z,3.50
2018-05-14T22:53:59.433Z,3.92
2018-05-14T22:56:27.319Z,3.90
2018-05-14T22:58:54.809Z,5.07
2018-05-14T23:01:22.324Z,4.82
2018-05-14T23:03:49.820Z,5.20
2018-05-14T23:06:18.091Z,9.02
2018-05-14T23:08:46.357Z,7.50
2018-05-14T23:11:13.910Z,6.50
2018-05-14T23:13:41.412Z,3.90
2018-05-14T23:16:08.934Z,5.20
2018-05-14T23:18:36.445Z,4.22
2018-05-14T23:21:03.954Z,8.73
2018-05-14T23:23:32.842Z,5.55
2018-05-14T23:26:00.357Z,4.15
2018-05-14T23:28:27.857Z,5.28
2018-05-14T23:30:55.360Z,5.15
2018-05-14T23:33:22.879Z,7.00
2018-05-14T23:35:50.378Z,3.72
2018-05-14T23:38:17.938Z,5.25
2018-05-14T23:40:45.530Z,5.93
2018-05-14T23:43:13.096Z,5.40
2018-05-14T23:45:40.672Z,6.40
2018-05-14T23:48:08.177Z,6.18
2018-05-14T23:50:35.673Z,5.20
2018-05-14T23:53:04.457Z,4.37
2018-05-14T23:55:31.968Z,4.35
2018-05-14T23:57:59.622Z,5.22
